createdAt,value
2022-08-01T00:00:05.771Z,18.84
2022-08-01T00:02:32.633Z,18.84
2022-08-01T00:05:01.016Z,18.81
2022-08-01T00:07:27.468Z,18.80
2022-08-01T00:09:54.194Z,18.83
2022-08-01T00:12:20.653Z,18.82
2022-08-01T00:14:47.084Z,18.83
2022-08-01T00:17:13.614Z,18.79
2022-08-01T00:19:39.971Z,18.78
2022-08-01T00:22:06.592Z,18.75
2022-08-01T00:24:34.312Z,18.74
2022-08-01T00:27:00.662Z,18.71
2022-08-01T00:30:01.142Z,18.70
2022-08-01T00:32:13.653Z,18.73
2022-08-01T00:34:40.138Z,18.75
2022-08-01T00:37:06.687Z,18.73
2022-08-01T00:39:34.093Z,18.70
2022-08-01T00:42:01.329Z,18.68
2022-08-01T00:44:28.112Z,18.65
2022-08-01T00:46:54.534Z,18.66
2022-08-01T00:49:21.081Z,18.64
2022-08-01T00:51:47.717Z,18.63
2022-08-01T00:54:16.611Z,18.64
2022-08-01T00:56:43.836Z,18.64
2022-08-01T00:59:11.987Z,18.64
2022-08-01T01:01:40.871Z,18.60
2022-08-01T01:04:13.036Z,18.59
2022-08-01T01:06:45.243Z,18.62
2022-08-01T01:09:33.378Z,18.58
2022-08-01T01:12:21.648Z,18.60
2022-08-01T01:15:02.441Z,18.57
2022-08-01T01:17:51.083Z,18.60
2022-08-01T01:20:21.835Z,18.59
2022-08-01T01:22:54.285Z,18.58
2022-08-01T01:25:33.729Z,18.55
2022-08-01T01:28:18.454Z,18.52
2022-08-01T01:30:49.998Z,18.53
2022-08-01T01:33:20.070Z,18.50
2022-08-01T01:35:52.594Z,18.49
2022-08-01T01:38:22.621Z,18.47
2022-08-01T01:40:51.298Z,18.45
2022-08-01T01:43:19.680Z,18.41
2022-08-01T01:45:48.425Z,18.44
2022-08-01T01:48:21.382Z,18.45
2022-08-01T01:50:50.188Z,18.46
2022-08-01T01:53:20.020Z,18.45
2022-08-01T01:55:50.246Z,18.45
2022-08-01T01:58:18.435Z,18.44
2022-08-01T02:00:47.560Z,18.43
2022-08-01T02:03:15.746Z,18.45
2022-08-01T02:05:43.458Z,18.45
2022-08-01T02:08:12.422Z,18.43
2022-08-01T02:10:40.157Z,18.45
2022-08-01T02:13:07.562Z,18.46
2022-08-01T02:15:39.201Z,18.46
2022-08-01T02:18:25.933Z,18.41
2022-08-01T02:20:55.362Z,18.40
2022-08-01T02:23:22.662Z,18.41
2022-08-01T02:26:08.622Z,18.41
2022-08-01T02:28:51.859Z,18.41
2022-08-01T02:31:21.321Z,18.41
2022-08-01T02:34:06.562Z,18.40
2022-08-01T02:36:36.383Z,18.38
2022-08-01T02:39:08.907Z,18.37
2022-08-01T02:41:40.880Z,18.36
2022-08-01T02:44:11.902Z,18.34
2022-08-01T02:46:44.309Z,18.34
2022-08-01T02:49:12.757Z,18.34
2022-08-01T02:51:41.618Z,18.34
2022-08-01T02:54:10.890Z,18.33
2022-08-01T02:56:38.778Z,18.33
2022-08-01T02:59:08.886Z,18.33
2022-08-01T03:01:36.676Z,18.31
2022-08-01T03:04:06.093Z,18.31
2022-08-01T03:06:34.669Z,18.30
2022-08-01T03:09:05.485Z,18.28
2022-08-01T03:11:33.167Z,18.31
2022-08-01T03:14:05.975Z,18.31
2022-08-01T03:16:36.220Z,18.31
2022-08-01T03:19:04.538Z,18.34
2022-08-01T03:21:32.834Z,18.33
2022-08-01T03:24:02.146Z,18.31
2022-08-01T03:26:30.382Z,18.29
2022-08-01T03:29:00.053Z,18.28
2022-08-01T03:31:28.720Z,18.29
2022-08-01T03:33:55.420Z,18.26
2022-08-01T03:36:29.536Z,18.22
2022-08-01T03:38:59.747Z,18.21
2022-08-01T03:41:38.587Z,18.21
2022-08-01T03:44:11.094Z,18.21
2022-08-01T03:46:43.391Z,18.19
2022-08-01T03:49:15.447Z,18.19
2022-08-01T03:51:42.165Z,18.19
2022-08-01T03:54:10.485Z,18.18
2022-08-01T03:56:37.881Z,18.14
2022-08-01T03:59:05.672Z,18.07
2022-08-01T04:01:33.018Z,18.02
2022-08-01T04:04:00.891Z,18.00
2022-08-01T04:06:27.393Z,17.98
2022-08-01T04:08:58.140Z,17.93
2022-08-01T04:11:26.452Z,17.89
2022-08-01T04:13:54.262Z,17.86
2022-08-01T04:16:23.345Z,17.85
2022-08-01T04:18:49.964Z,17.85
2022-08-01T04:21:19.160Z,17.88
2022-08-01T04:23:47.600Z,17.92
2022-08-01T04:26:20.515Z,17.94
2022-08-01T04:28:50.918Z,17.95
2022-08-01T04:31:19.873Z,17.97
2022-08-01T04:33:50.684Z,17.98
2022-08-01T04:36:20.619Z,17.98
2022-08-01T04:38:51.547Z,17.95
2022-08-01T04:41:19.522Z,17.99
2022-08-01T04:43:45.979Z,17.99
2022-08-01T04:46:14.311Z,18.03
2022-08-01T04:48:41.719Z,18.05
2022-08-01T04:51:19.314Z,18.05
2022-08-01T04:53:46.856Z,18.03
2022-08-01T04:56:14.206Z,18.05
2022-08-01T04:58:42.010Z,18.04
2022-08-01T05:01:09.364Z,18.04
2022-08-01T05:03:38.841Z,18.08
2022-08-01T05:06:05.762Z,18.11
2022-08-01T05:08:32.154Z,18.11
2022-08-01T05:10:58.638Z,18.15
2022-08-01T05:13:25.039Z,18.18
2022-08-01T05:15:51.383Z,18.19
2022-08-01T05:18:17.813Z,18.20
2022-08-01T05:20:54.661Z,18.21
2022-08-01T05:23:28.484Z,18.25
2022-08-01T05:26:07.407Z,18.24
2022-08-01T05:28:33.896Z,18.25
2022-08-01T05:31:00.366Z,18.27
2022-08-01T05:33:26.835Z,18.27
2022-08-01T05:35:53.217Z,18.27
2022-08-01T05:38:19.649Z,18.27
2022-08-01T05:40:46.104Z,18.21
2022-08-01T05:43:12.584Z,18.19
2022-08-01T05:45:39.185Z,18.18
2022-08-01T05:48:05.867Z,18.15
2022-08-01T05:50:33.935Z,18.13
2022-08-01T05:53:00.368Z,18.14
2022-08-01T05:55:26.898Z,18.13
2022-08-01T05:57:53.276Z,18.13
2022-08-01T06:00:19.699Z,18.19
2022-08-01T06:02:46.293Z,18.27
2022-08-01T06:05:13.612Z,18.33
2022-08-01T06:07:41.222Z,18.33
2022-08-01T06:10:09.157Z,18.37
2022-08-01T06:12:36.546Z,18.37
2022-08-01T06:15:06.869Z,18.41
2022-08-01T06:17:33.491Z,18.41
2022-08-01T06:20:00.655Z,18.47
2022-08-01T06:22:27.270Z,18.47
2022-08-01T06:24:54.420Z,18.44
2022-08-01T06:27:21.684Z,18.41
2022-08-01T06:29:53.401Z,18.41
2022-08-01T06:32:26.884Z,18.38
2022-08-01T06:34:55.087Z,18.36
2022-08-01T06:37:22.325Z,18.37
2022-08-01T06:39:50.321Z,18.32
2022-08-01T06:42:16.842Z,18.32
2022-08-01T06:44:43.229Z,18.29
2022-08-01T06:47:09.645Z,18.30
2022-08-01T06:49:36.155Z,18.28
2022-08-01T06:52:04.298Z,18.18
2022-08-01T06:54:31.024Z,18.14
2022-08-01T06:56:57.449Z,18.20
2022-08-01T06:59:23.844Z,18.22
2022-08-01T07:01:50.321Z,18.20
2022-08-01T07:04:16.785Z,18.20
2022-08-01T07:06:43.248Z,18.22
2022-08-01T07:09:12.265Z,18.17
2022-08-01T07:11:40.724Z,18.19
2022-08-01T07:14:07.183Z,18.25
2022-08-01T07:16:33.636Z,18.33
2022-08-01T07:19:00.036Z,18.34
2022-08-01T07:21:39.736Z,18.33
2022-08-01T07:24:15.198Z,18.34
2022-08-01T07:26:52.332Z,18.36
2022-08-01T07:29:20.922Z,18.38
2022-08-01T07:31:47.438Z,18.35
2022-08-01T07:34:13.841Z,18.31
2022-08-01T07:36:40.216Z,18.30
2022-08-01T07:39:06.594Z,18.29
2022-08-01T07:41:53.468Z,18.30
2022-08-01T07:44:19.341Z,18.30
2022-08-01T07:46:45.777Z,18.30
2022-08-01T07:49:12.386Z,18.31
2022-08-01T07:51:39.211Z,18.29
2022-08-01T07:54:05.645Z,18.22
2022-08-01T07:56:32.275Z,18.19
2022-08-01T07:58:58.756Z,18.18
2022-08-01T08:01:25.385Z,18.25
2022-08-01T08:03:51.859Z,18.35
2022-08-01T08:06:18.309Z,18.40
2022-08-01T08:08:44.866Z,18.48
2022-08-01T08:11:11.277Z,18.52
2022-08-01T08:13:37.681Z,18.56
2022-08-01T08:16:04.528Z,18.68
2022-08-01T08:18:30.885Z,18.78
2022-08-01T08:20:57.341Z,18.98
2022-08-01T08:23:44.037Z,19.05
2022-08-01T08:26:12.083Z,19.18
2022-08-01T08:28:38.720Z,19.28
2022-08-01T08:31:07.944Z,19.40
2022-08-01T08:33:52.343Z,19.51
2022-08-01T08:36:18.776Z,19.49
2022-08-01T08:38:45.208Z,19.53
2022-08-01T08:41:14.411Z,19.60
2022-08-01T08:43:43.548Z,19.53
2022-08-01T08:46:12.642Z,19.39
2022-08-01T08:48:41.327Z,19.35
2022-08-01T08:51:09.721Z,19.48
2022-08-01T08:53:36.897Z,19.56
2022-08-01T08:56:07.385Z,19.66
2022-08-01T08:58:38.514Z,19.78
2022-08-01T09:01:09.557Z,19.90
2022-08-01T09:03:36.098Z,19.93
2022-08-01T09:06:02.621Z,19.97
2022-08-01T09:08:29.154Z,20.05
2022-08-01T09:10:55.816Z,20.21
2022-08-01T09:13:22.337Z,20.35
2022-08-01T09:15:51.482Z,20.50
2022-08-01T09:18:35.136Z,20.60
2022-08-01T09:21:07.689Z,20.60
2022-08-01T09:23:40.795Z,20.71
2022-08-01T09:26:29.943Z,20.77
2022-08-01T09:28:57.732Z,21.04
2022-08-01T09:31:38.481Z,21.39
2022-08-01T09:34:06.354Z,21.64
2022-08-01T09:37:07.614Z,21.98
2022-08-01T09:39:41.195Z,22.08
2022-08-01T09:42:29.225Z,21.99
2022-08-01T09:44:56.162Z,22.04
2022-08-01T09:47:23.715Z,22.08
2022-08-01T09:49:57.340Z,22.06
2022-08-01T09:52:29.022Z,22.03
2022-08-01T09:55:03.831Z,22.03
2022-08-01T09:57:31.091Z,22.18
2022-08-01T10:00:01.113Z,22.27
2022-08-01T10:02:34.463Z,22.55
2022-08-01T10:05:08.511Z,22.77
2022-08-01T10:07:44.002Z,22.93
2022-08-01T10:10:14.487Z,22.96
2022-08-01T10:12:45.518Z,23.07
2022-08-01T10:15:17.829Z,23.34
2022-08-01T10:17:57.430Z,23.51
2022-08-01T10:20:31.393Z,23.63
2022-08-01T10:23:06.378Z,23.78
2022-08-01T10:25:42.234Z,23.94
2022-08-01T10:28:23.946Z,24.40
2022-08-01T10:30:53.124Z,24.58
2022-08-01T10:33:51.313Z,24.53
2022-08-01T10:36:10.634Z,24.60
2022-08-01T10:38:37.543Z,24.61
2022-08-01T10:41:08.651Z,24.71
2022-08-01T10:43:35.801Z,24.80
2022-08-01T10:46:05.019Z,24.90
2022-08-01T10:48:44.530Z,24.76
2022-08-01T10:51:18.206Z,24.59
2022-08-01T10:53:54.861Z,25.06
2022-08-01T10:56:27.057Z,25.62
2022-08-01T10:59:06.323Z,25.45
2022-08-01T11:01:38.408Z,25.04
2022-08-01T11:04:16.081Z,24.72
2022-08-01T11:06:50.755Z,24.55
2022-08-01T11:09:36.171Z,24.49
2022-08-01T11:12:13.086Z,24.28
2022-08-01T11:14:58.977Z,24.09
2022-08-01T11:17:49.116Z,23.90
2022-08-01T11:20:17.343Z,23.76
2022-08-01T11:23:02.993Z,23.94
2022-08-01T11:26:04.706Z,24.10
2022-08-01T11:28:32.916Z,24.14
2022-08-01T11:31:13.943Z,24.10
2022-08-01T11:33:40.881Z,24.28
2022-08-01T11:36:14.173Z,24.38
2022-08-01T11:38:47.212Z,24.41
2022-08-01T11:41:38.491Z,24.36
2022-08-01T11:44:15.698Z,24.41
2022-08-01T11:47:02.311Z,24.60
2022-08-01T11:49:38.736Z,24.89
2022-08-01T11:52:08.691Z,25.06
2022-08-01T11:54:40.420Z,25.28
2022-08-01T11:57:34.155Z,25.75
2022-08-01T12:00:04.579Z,25.95
2022-08-01T12:02:35.511Z,26.40
2022-08-01T12:05:11.680Z,26.54
2022-08-01T12:07:39.883Z,26.34
2022-08-01T12:10:08.240Z,26.65
2022-08-01T12:12:45.002Z,26.97
2022-08-01T12:15:13.165Z,27.27
2022-08-01T12:17:47.074Z,27.46
2022-08-01T12:20:30.094Z,27.43
2022-08-01T12:22:59.142Z,27.22
2022-08-01T12:25:25.640Z,27.12
2022-08-01T12:27:56.198Z,27.15
2022-08-01T12:30:25.365Z,27.06
2022-08-01T12:32:53.825Z,27.12
2022-08-01T12:35:24.182Z,27.10
2022-08-01T12:37:53.321Z,27.15
2022-08-01T12:40:22.668Z,27.22
2022-08-01T12:42:53.227Z,27.36
2022-08-01T12:45:29.659Z,27.75
2022-08-01T12:47:59.576Z,27.86
2022-08-01T12:50:31.602Z,27.93
2022-08-01T12:52:59.447Z,28.07
2022-08-01T12:55:34.194Z,28.26
2022-08-01T12:58:15.861Z,28.46
2022-08-01T13:00:45.363Z,28.73
2022-08-01T13:03:14.017Z,28.65
2022-08-01T13:05:51.421Z,28.86
2022-08-01T13:08:29.780Z,29.11
2022-08-01T13:11:03.478Z,29.11
2022-08-01T13:13:39.925Z,29.05
2022-08-01T13:16:12.317Z,28.75
2022-08-01T13:18:51.495Z,28.40
2022-08-01T13:21:20.602Z,28.29
2022-08-01T13:24:10.762Z,28.47
2022-08-01T13:26:46.317Z,28.41
2022-08-01T13:29:14.664Z,28.49
2022-08-01T13:31:42.077Z,28.56
2022-08-01T13:34:09.143Z,29.02
2022-08-01T13:36:36.590Z,29.26
2022-08-01T13:39:22.483Z,29.03
2022-08-01T13:41:49.292Z,28.85
2022-08-01T13:44:16.080Z,28.97
2022-08-01T13:46:49.765Z,29.03
2022-08-01T13:49:17.838Z,28.98
2022-08-01T13:51:46.723Z,29.44
2022-08-01T13:54:13.149Z,29.52
2022-08-01T13:56:39.566Z,29.43
2022-08-01T13:59:07.429Z,29.05
2022-08-01T14:01:34.761Z,29.09
2022-08-01T14:04:02.591Z,29.14
2022-08-01T14:06:29.231Z,29.26
2022-08-01T14:08:55.688Z,29.59
2022-08-01T14:11:22.137Z,29.66
2022-08-01T14:13:48.553Z,29.21
2022-08-01T14:16:15.507Z,29.10
2022-08-01T14:18:44.265Z,28.78
2022-08-01T14:21:11.062Z,29.00
2022-08-01T14:23:37.569Z,28.88
2022-08-01T14:26:08.403Z,28.67
2022-08-01T14:28:38.816Z,28.85
2022-08-01T14:31:08.954Z,28.87
2022-08-01T14:33:35.790Z,29.09
2022-08-01T14:36:28.690Z,29.21
2022-08-01T14:38:49.537Z,29.30
2022-08-01T14:41:16.185Z,29.08
2022-08-01T14:43:43.010Z,29.01
2022-08-01T14:46:10.795Z,28.71
2022-08-01T14:48:37.247Z,28.69
2022-08-01T14:51:05.116Z,28.68
2022-08-01T14:53:33.621Z,28.79
2022-08-01T14:56:02.473Z,28.97
2022-08-01T14:58:28.900Z,29.00
2022-08-01T15:00:58.639Z,29.31
2022-08-01T15:03:26.040Z,29.41
2022-08-01T15:05:52.519Z,29.32
2022-08-01T15:08:18.952Z,29.20
2022-08-01T15:10:45.464Z,29.28
2022-08-01T15:13:11.848Z,29.30
2022-08-01T15:15:38.348Z,29.03
2022-08-01T15:18:05.245Z,28.36
2022-08-01T15:20:32.111Z,27.92
2022-08-01T15:22:58.793Z,28.26
2022-08-01T15:25:40.709Z,28.65
2022-08-01T15:28:10.573Z,28.60
2022-08-01T15:30:37.276Z,28.76
2022-08-01T15:33:03.969Z,28.95
2022-08-01T15:35:30.433Z,28.93
2022-08-01T15:37:56.900Z,29.08
2022-08-01T15:40:23.488Z,28.99
2022-08-01T15:42:49.933Z,28.89
2022-08-01T15:45:44.569Z,28.77
2022-08-01T15:48:05.960Z,28.89
2022-08-01T15:50:32.429Z,28.98
2022-08-01T15:53:01.377Z,28.89
2022-08-01T15:55:28.202Z,28.72
2022-08-01T15:57:54.645Z,28.24
2022-08-01T16:00:23.269Z,28.05
2022-08-01T16:02:49.735Z,28.08
2022-08-01T16:05:20.369Z,28.17
2022-08-01T16:07:59.580Z,28.13
2022-08-01T16:10:29.183Z,28.37
2022-08-01T16:12:55.685Z,28.26
2022-08-01T16:15:23.103Z,28.20
2022-08-01T16:18:03.020Z,27.96
2022-08-01T16:20:29.450Z,27.81
2022-08-01T16:22:55.847Z,27.93
2022-08-01T16:25:22.339Z,27.99
2022-08-01T16:27:51.159Z,27.98
2022-08-01T16:30:17.780Z,28.04
2022-08-01T16:32:54.685Z,27.95
2022-08-01T16:35:31.982Z,28.03
2022-08-01T16:38:06.012Z,28.16
2022-08-01T16:40:46.430Z,27.85
2022-08-01T16:43:15.320Z,27.80
2022-08-01T16:45:43.113Z,27.56
2022-08-01T16:48:12.151Z,27.62
2022-08-01T16:50:42.004Z,27.54
2022-08-01T16:53:08.479Z,27.58
2022-08-01T16:55:50.096Z,27.49
2022-08-01T16:58:27.283Z,27.80
2022-08-01T17:00:56.370Z,27.96
2022-08-01T17:03:51.423Z,28.35
2022-08-01T17:06:10.445Z,28.45
2022-08-01T17:08:37.072Z,28.27
2022-08-01T17:11:13.261Z,28.43
2022-08-01T17:13:39.704Z,28.56
2022-08-01T17:16:08.107Z,28.57
2022-08-01T17:18:34.775Z,28.72
2022-08-01T17:21:01.271Z,28.63
2022-08-01T17:23:27.815Z,28.59
2022-08-01T17:25:54.317Z,28.78
2022-08-01T17:28:23.053Z,28.80
2022-08-01T17:30:49.956Z,28.92
2022-08-01T17:33:16.695Z,28.92
2022-08-01T17:35:43.101Z,28.87
2022-08-01T17:38:09.536Z,28.80
2022-08-01T17:40:40.828Z,28.81
2022-08-01T17:43:07.762Z,28.95
2022-08-01T17:45:38.097Z,28.80
2022-08-01T17:48:07.119Z,28.77
2022-08-01T17:50:33.495Z,29.05
2022-08-01T17:52:59.887Z,28.86
2022-08-01T17:55:53.481Z,28.50
2022-08-01T17:58:14.452Z,28.20
2022-08-01T18:00:41.602Z,28.37
2022-08-01T18:03:08.455Z,28.55
2022-08-01T18:05:38.280Z,28.44
2022-08-01T18:08:06.679Z,28.10
2022-08-01T18:10:33.228Z,27.95
2022-08-01T18:13:01.499Z,27.95
2022-08-01T18:15:29.752Z,27.45
2022-08-01T18:17:59.265Z,26.33
2022-08-01T18:20:25.898Z,25.69
2022-08-01T18:22:52.432Z,25.23
2022-08-01T18:25:20.014Z,24.75
2022-08-01T18:28:22.314Z,24.53
2022-08-01T18:30:33.316Z,24.35
2022-08-01T18:32:59.804Z,24.03
2022-08-01T18:35:34.469Z,23.82
2022-08-01T18:38:15.657Z,23.61
2022-08-01T18:40:42.054Z,23.41
2022-08-01T18:43:08.420Z,23.23
2022-08-01T18:45:37.418Z,23.01
2022-08-01T18:48:06.292Z,22.78
2022-08-01T18:50:32.751Z,22.64
2022-08-01T18:52:59.221Z,22.52
2022-08-01T18:55:25.856Z,22.37
2022-08-01T18:57:52.323Z,22.25
2022-08-01T19:00:18.748Z,22.14
2022-08-01T19:02:45.737Z,22.06
2022-08-01T19:05:12.151Z,21.79
2022-08-01T19:08:05.268Z,21.71
2022-08-01T19:10:28.299Z,21.57
2022-08-01T19:12:54.884Z,21.44
2022-08-01T19:15:21.566Z,21.36
2022-08-01T19:17:48.175Z,21.24
2022-08-01T19:20:14.624Z,21.10
2022-08-01T19:22:43.954Z,20.94
2022-08-01T19:25:10.360Z,20.82
2022-08-01T19:27:42.292Z,20.65
2022-08-01T19:30:09.520Z,20.39
2022-08-01T19:32:41.772Z,20.14
2022-08-01T19:35:11.496Z,20.00
2022-08-01T19:37:45.752Z,19.86
2022-08-01T19:40:27.208Z,19.59
2022-08-01T19:42:56.833Z,19.47
2022-08-01T19:45:24.539Z,19.32
2022-08-01T19:47:56.661Z,19.10
2022-08-01T19:50:28.027Z,18.91
2022-08-01T19:52:56.423Z,18.81
2022-08-01T19:55:27.473Z,18.74
2022-08-01T19:58:24.137Z,18.68
2022-08-01T20:00:42.850Z,18.60
2022-08-01T20:03:10.179Z,18.49
2022-08-01T20:05:37.211Z,18.33
2022-08-01T20:08:05.552Z,18.23
2022-08-01T20:10:32.186Z,18.19
2022-08-01T20:12:58.763Z,18.14
2022-08-01T20:15:25.424Z,18.07
2022-08-01T20:17:51.869Z,17.94
2022-08-01T20:20:21.736Z,17.77
2022-08-01T20:22:49.409Z,17.60
2022-08-01T20:25:22.728Z,17.50
2022-08-01T20:27:49.247Z,17.37
2022-08-01T20:30:15.661Z,17.24
2022-08-01T20:32:43.123Z,17.24
2022-08-01T20:35:10.205Z,17.22
2022-08-01T20:38:06.143Z,17.08
2022-08-01T20:40:28.532Z,16.88
2022-08-01T20:42:56.360Z,16.79
2022-08-01T20:45:24.890Z,16.76
2022-08-01T20:47:53.894Z,16.78
2022-08-01T20:50:53.291Z,16.74
2022-08-01T20:53:22.662Z,16.75
2022-08-01T20:55:54.374Z,16.66
2022-08-01T20:58:39.337Z,16.51
2022-08-01T21:01:09.628Z,16.32
2022-08-01T21:04:03.141Z,16.29
2022-08-01T21:06:37.836Z,16.26
2022-08-01T21:09:06.294Z,16.22
2022-08-01T21:12:05.191Z,16.18
2022-08-01T21:14:58.921Z,16.12
2022-08-01T21:17:42.472Z,16.05
2022-08-01T21:20:16.466Z,15.89
2022-08-01T21:22:57.162Z,15.77
2022-08-01T21:25:27.125Z,15.67
2022-08-01T21:27:58.011Z,15.60
2022-08-01T21:30:25.311Z,15.56
2022-08-01T21:32:52.335Z,15.46
2022-08-01T21:35:22.428Z,15.38
2022-08-01T21:37:52.732Z,15.31
2022-08-01T21:40:21.652Z,15.23
2022-08-01T21:42:49.895Z,15.13
2022-08-01T21:45:19.693Z,15.07
2022-08-01T21:47:48.991Z,15.11
2022-08-01T21:50:15.590Z,15.13
2022-08-01T21:52:57.381Z,15.17
2022-08-01T21:56:14.702Z,15.12
2022-08-01T21:58:51.787Z,15.09
2022-08-01T22:01:31.633Z,14.96
2022-08-01T22:04:02.341Z,14.98
2022-08-01T22:06:34.253Z,15.02
2022-08-01T22:09:06.237Z,15.02
2022-08-01T22:11:34.299Z,14.93
2022-08-01T22:14:08.494Z,14.75
2022-08-01T22:16:40.718Z,14.66
2022-08-01T22:19:09.727Z,14.66
2022-08-01T22:21:56.780Z,14.57
2022-08-01T22:24:23.453Z,14.50
2022-08-01T22:26:53.580Z,14.53
2022-08-01T22:29:20.591Z,14.49
2022-08-01T22:31:48.320Z,14.41
2022-08-01T22:34:18.996Z,14.38
2022-08-01T22:36:45.467Z,14.39
2022-08-01T22:39:19.402Z,14.28
2022-08-01T22:42:01.556Z,14.25
2022-08-01T22:44:44.348Z,14.22
2022-08-01T22:47:22.239Z,14.18
2022-08-01T22:50:03.776Z,14.15
2022-08-01T22:52:33.097Z,14.09
2022-08-01T22:55:10.808Z,14.03
2022-08-01T22:58:01.734Z,14.00
2022-08-01T23:00:35.212Z,13.98
2022-08-01T23:03:28.299Z,13.99
2022-08-01T23:06:09.759Z,14.07
2022-08-01T23:08:36.697Z,14.09
2022-08-01T23:11:05.251Z,14.06
2022-08-01T23:13:32.440Z,14.10
2022-08-01T23:16:00.509Z,14.15
2022-08-01T23:18:28.113Z,14.22
2022-08-01T23:21:02.249Z,14.26
2022-08-01T23:23:33.540Z,14.32
2022-08-01T23:26:00.832Z,14.34
2022-08-01T23:28:28.996Z,14.37
2022-08-01T23:30:55.958Z,14.37
2022-08-01T23:33:22.456Z,14.36
2022-08-01T23:35:48.993Z,14.34
2022-08-01T23:38:16.024Z,14.25
2022-08-01T23:40:42.712Z,14.22
2022-08-01T23:43:17.180Z,14.22
2022-08-01T23:46:04.397Z,14.16
2022-08-01T23:48:33.204Z,14.05
2022-08-01T23:50:59.610Z,14.01
2022-08-01T23:53:30.974Z,13.99
2022-08-01T23:55:58.887Z,13.92
2022-08-01T23:58:25.439Z,13.89
